createdAt,value
2023-05-22T00:00:37.868Z,97190.00
2023-05-22T00:03:06.452Z,97204.00
2023-05-22T00:05:39.120Z,97189.00
2023-05-22T00:08:11.601Z,97185.00
2023-05-22T00:10:40.504Z,97181.00
2023-05-22T00:13:08.902Z,97191.00
2023-05-22T00:15:37.031Z,97184.00
2023-05-22T00:18:06.284Z,97182.00
2023-05-22T00:20:39.232Z,97178.00
2023-05-22T00:23:12.149Z,97173.00
2023-05-22T00:25:41.588Z,97182.00
2023-05-22T00:28:09.794Z,97174.00
2023-05-22T00:30:38.801Z,97177.00
2023-05-22T00:33:07.432Z,97166.00
2023-05-22T00:35:35.659Z,97166.00
2023-05-22T00:38:06.187Z,97180.00
2023-05-22T00:40:36.084Z,97158.00
2023-05-22T00:43:08.373Z,97161.00
2023-05-22T00:45:36.823Z,97163.00
2023-05-22T00:48:06.026Z,97170.00
2023-05-22T00:50:34.274Z,97165.00
2023-05-22T00:53:03.082Z,97169.00
2023-05-22T00:55:31.497Z,97164.00
2023-05-22T00:58:07.476Z,97165.00
2023-05-22T01:00:37.126Z,97164.00
2023-05-22T01:03:07.992Z,97167.00
2023-05-22T01:05:36.426Z,97168.00
2023-05-22T01:08:06.159Z,97168.00
2023-05-22T01:10:36.725Z,97162.00
2023-05-22T01:13:18.421Z,97162.00
2023-05-22T01:15:55.977Z,97181.00
2023-05-22T01:18:35.252Z,97180.00
2023-05-22T01:21:13.033Z,97175.00
2023-05-22T01:24:13.791Z,97172.00
2023-05-22T01:27:36.017Z,97173.00
2023-05-22T01:30:49.416Z,97174.00
2023-05-22T01:33:21.586Z,97179.00
2023-05-22T01:35:54.727Z,97180.00
2023-05-22T01:38:23.589Z,97177.00
2023-05-22T01:40:52.530Z,97185.00
2023-05-22T01:43:21.735Z,97170.00
2023-05-22T01:45:51.478Z,97171.00
2023-05-22T01:48:21.117Z,97178.00
2023-05-22T01:50:54.802Z,97181.00
2023-05-22T01:53:35.027Z,97184.00
2023-05-22T01:56:08.990Z,97184.00
2023-05-22T01:58:50.604Z,97178.00
2023-05-22T02:01:23.505Z,97181.00
2023-05-22T02:03:58.028Z,97174.00
2023-05-22T02:06:30.232Z,97191.00
2023-05-22T02:08:58.910Z,97183.00
2023-05-22T02:11:30.036Z,97183.00
2023-05-22T02:13:59.342Z,97179.00
2023-05-22T02:16:28.711Z,97169.00
2023-05-22T02:19:06.277Z,97179.00
2023-05-22T02:21:36.142Z,97180.00
2023-05-22T02:24:04.885Z,97172.00
2023-05-22T02:26:33.107Z,97173.00
2023-05-22T02:29:01.987Z,97181.00
2023-05-22T02:31:30.422Z,97162.00
2023-05-22T02:33:58.803Z,97171.00
2023-05-22T02:36:30.926Z,97179.00
2023-05-22T02:38:59.514Z,97167.00
2023-05-22T02:41:28.129Z,97171.00
2023-05-22T02:43:56.663Z,97163.00
2023-05-22T02:46:24.999Z,97160.00
2023-05-22T02:48:53.289Z,97167.00
2023-05-22T02:51:21.487Z,97179.00
2023-05-22T02:53:51.027Z,97177.00
2023-05-22T02:56:20.903Z,97168.00
2023-05-22T02:58:49.296Z,97173.00
2023-05-22T03:01:17.536Z,97171.00
2023-05-22T03:03:48.293Z,97176.00
2023-05-22T03:06:17.382Z,97166.00
2023-05-22T03:08:46.777Z,97175.00
2023-05-22T03:11:16.298Z,97173.00
2023-05-22T03:13:44.467Z,97183.00
2023-05-22T03:16:12.817Z,97172.00
2023-05-22T03:18:45.960Z,97185.00
2023-05-22T03:21:14.301Z,97191.00
2023-05-22T03:23:42.626Z,97189.00
2023-05-22T03:26:11.189Z,97180.00
2023-05-22T03:28:42.241Z,97184.00
2023-05-22T03:31:10.509Z,97183.00
2023-05-22T03:33:55.256Z,97189.00
2023-05-22T03:36:24.004Z,97178.00
2023-05-22T03:38:52.437Z,97176.00
2023-05-22T03:41:20.755Z,97181.00
2023-05-22T03:43:50.372Z,97179.00
2023-05-22T03:46:18.845Z,97172.00
2023-05-22T03:48:47.274Z,97165.00
2023-05-22T03:51:18.128Z,97177.00
2023-05-22T03:53:48.287Z,97175.00
2023-05-22T03:56:17.275Z,97169.00
2023-05-22T03:58:45.561Z,97174.00
2023-05-22T04:01:16.746Z,97167.00
2023-05-22T04:03:45.244Z,97179.00
2023-05-22T04:06:14.649Z,97180.00
2023-05-22T04:08:42.911Z,97177.00
2023-05-22T04:11:11.107Z,97180.00
2023-05-22T04:13:39.427Z,97174.00
2023-05-22T04:16:08.894Z,97187.00
2023-05-22T04:18:38.562Z,97183.00
2023-05-22T04:21:09.474Z,97175.00
2023-05-22T04:23:38.517Z,97185.00
2023-05-22T04:26:08.726Z,97172.00
2023-05-22T04:28:37.954Z,97180.00
2023-05-22T04:31:07.560Z,97178.00
2023-05-22T04:33:36.483Z,97189.00
2023-05-22T04:36:12.384Z,97190.00
2023-05-22T04:38:41.264Z,97182.00
2023-05-22T04:41:13.478Z,97191.00
2023-05-22T04:43:42.752Z,97179.00
2023-05-22T04:46:11.070Z,97183.00
2023-05-22T04:48:40.149Z,97195.00
2023-05-22T04:51:10.420Z,97193.00
2023-05-22T04:53:38.888Z,97196.00
2023-05-22T04:56:08.372Z,97192.00
2023-05-22T04:58:37.855Z,97207.00
2023-05-22T05:01:07.340Z,97205.00
2023-05-22T05:03:36.070Z,97200.00
2023-05-22T05:06:04.578Z,97194.00
2023-05-22T05:08:34.098Z,97199.00
2023-05-22T05:11:02.286Z,97190.00
2023-05-22T05:13:30.659Z,97198.00
2023-05-22T05:16:01.252Z,97183.00
2023-05-22T05:18:29.736Z,97193.00
2023-05-22T05:20:57.932Z,97199.00
2023-05-22T05:23:26.306Z,97184.00
2023-05-22T05:25:57.592Z,97189.00
2023-05-22T05:28:26.225Z,97200.00
2023-05-22T05:30:54.938Z,97191.00
2023-05-22T05:33:50.387Z,97198.00
2023-05-22T05:36:30.439Z,97198.00
2023-05-22T05:38:58.963Z,97195.00
2023-05-22T05:41:29.040Z,97189.00
2023-05-22T05:44:03.608Z,97191.00
2023-05-22T05:46:34.265Z,97189.00
2023-05-22T05:49:09.894Z,97195.00
2023-05-22T05:51:38.611Z,97193.00
2023-05-22T05:54:07.694Z,97201.00
2023-05-22T05:56:37.630Z,97201.00
2023-05-22T05:59:06.810Z,97200.00
2023-05-22T06:01:39.788Z,97203.00
2023-05-22T06:04:13.467Z,97199.00
2023-05-22T06:06:42.532Z,97188.00
2023-05-22T06:09:11.060Z,97202.00
2023-05-22T06:11:59.395Z,97201.00
2023-05-22T06:14:27.683Z,97202.00
2023-05-22T06:16:56.312Z,97200.00
2023-05-22T06:19:24.834Z,97201.00
2023-05-22T06:21:53.098Z,97199.00
2023-05-22T06:24:23.013Z,97206.00
2023-05-22T06:26:51.705Z,97210.00
2023-05-22T06:29:21.391Z,97198.00
2023-05-22T06:31:49.886Z,97208.00
2023-05-22T06:34:22.279Z,97196.00
2023-05-22T06:36:52.031Z,97205.00
2023-05-22T06:39:24.117Z,97202.00
2023-05-22T06:41:55.011Z,97186.00
2023-05-22T06:44:25.691Z,97190.00
2023-05-22T06:46:56.922Z,97193.00
2023-05-22T06:49:26.958Z,97190.00
2023-05-22T06:51:57.126Z,97196.00
2023-05-22T06:54:28.611Z,97190.00
2023-05-22T06:56:59.458Z,97191.00
2023-05-22T06:59:31.960Z,97200.00
2023-05-22T07:02:06.624Z,97192.00
2023-05-22T07:05:04.081Z,97194.00
2023-05-22T07:07:38.705Z,97200.00
2023-05-22T07:10:08.886Z,97197.00
2023-05-22T07:12:37.265Z,97210.00
2023-05-22T07:15:11.981Z,97199.00
2023-05-22T07:17:41.827Z,97199.00
2023-05-22T07:20:12.140Z,97197.00
2023-05-22T07:22:45.468Z,97188.00
2023-05-22T07:25:14.288Z,97208.00
2023-05-22T07:27:42.791Z,97184.00
2023-05-22T07:30:14.033Z,97209.00
2023-05-22T07:32:42.773Z,97194.00
2023-05-22T07:35:11.874Z,97190.00
2023-05-22T07:37:41.326Z,97198.00
2023-05-22T07:40:11.223Z,97197.00
2023-05-22T07:42:39.518Z,97189.00
2023-05-22T07:45:14.338Z,97195.00
2023-05-22T07:47:42.957Z,97188.00
2023-05-22T07:50:12.219Z,97189.00
2023-05-22T07:52:43.945Z,97197.00
2023-05-22T07:55:12.829Z,97185.00
2023-05-22T07:57:43.691Z,97176.00
2023-05-22T08:00:31.166Z,97190.00
2023-05-22T08:02:59.513Z,97200.00
2023-05-22T08:05:27.991Z,97196.00
2023-05-22T08:07:56.243Z,97193.00
2023-05-22T08:10:24.682Z,97192.00
2023-05-22T08:12:53.605Z,97185.00
2023-05-22T08:15:21.950Z,97183.00
2023-05-22T08:17:51.579Z,97192.00
2023-05-22T08:20:20.169Z,97186.00
2023-05-22T08:22:48.736Z,97185.00
2023-05-22T08:25:17.284Z,97192.00
2023-05-22T08:27:45.632Z,97194.00
2023-05-22T08:30:14.401Z,97194.00
2023-05-22T08:32:42.771Z,97195.00
2023-05-22T08:35:14.175Z,97192.00
2023-05-22T08:37:42.578Z,97188.00
2023-05-22T08:40:13.656Z,97186.00
2023-05-22T08:42:42.250Z,97181.00
2023-05-22T08:45:11.732Z,97186.00
2023-05-22T08:47:44.218Z,97184.00
2023-05-22T08:50:14.882Z,97176.00
2023-05-22T08:52:52.012Z,97178.00
2023-05-22T08:55:21.090Z,97169.00
2023-05-22T08:57:51.260Z,97170.00
2023-05-22T09:00:22.212Z,97167.00
2023-05-22T09:02:51.007Z,97161.00
2023-05-22T09:05:26.482Z,97180.00
2023-05-22T09:07:58.325Z,97167.00
2023-05-22T09:10:31.198Z,97161.00
2023-05-22T09:13:03.755Z,97168.00
2023-05-22T09:15:33.199Z,97171.00
2023-05-22T09:18:01.820Z,97164.00
2023-05-22T09:20:36.047Z,97172.00
2023-05-22T09:23:15.610Z,97180.00
2023-05-22T09:25:45.210Z,97178.00
2023-05-22T09:28:14.374Z,97177.00
2023-05-22T09:30:43.327Z,97164.00
2023-05-22T09:33:14.430Z,97161.00
2023-05-22T09:35:45.811Z,97163.00
2023-05-22T09:38:16.347Z,97173.00
2023-05-22T09:40:44.814Z,97176.00
2023-05-22T09:43:18.785Z,97165.00
2023-05-22T09:45:46.997Z,97160.00
2023-05-22T09:48:18.907Z,97160.00
2023-05-22T09:50:51.134Z,97160.00
2023-05-22T09:53:21.916Z,97162.00
2023-05-22T09:55:51.702Z,97153.00
2023-05-22T09:58:22.655Z,97162.00
2023-05-22T10:00:51.989Z,97158.00
2023-05-22T10:03:26.357Z,97140.00
2023-05-22T10:05:57.965Z,97144.00
2023-05-22T10:08:30.034Z,97147.00
2023-05-22T10:10:58.951Z,97146.00
2023-05-22T10:13:28.903Z,97149.00
2023-05-22T10:15:58.546Z,97140.00
2023-05-22T10:18:28.533Z,97139.00
2023-05-22T10:20:58.902Z,97148.00
2023-05-22T10:23:29.552Z,97135.00
2023-05-22T10:25:58.552Z,97134.00
2023-05-22T10:28:46.235Z,97135.00
2023-05-22T10:31:29.883Z,97129.00
2023-05-22T10:34:30.841Z,97137.00
2023-05-22T10:37:22.432Z,97141.00
2023-05-22T10:40:04.246Z,97134.00
2023-05-22T10:42:33.100Z,97135.00
2023-05-22T10:45:03.078Z,97140.00
2023-05-22T10:47:34.687Z,97127.00
2023-05-22T10:50:10.967Z,97129.00
2023-05-22T10:52:41.429Z,97123.00
2023-05-22T10:55:11.652Z,97124.00
2023-05-22T10:57:40.804Z,97124.00
2023-05-22T11:00:18.712Z,97122.00
2023-05-22T11:02:50.663Z,97127.00
2023-05-22T11:05:40.981Z,97126.00
2023-05-22T11:08:40.557Z,97127.00
2023-05-22T11:11:14.430Z,97125.00
2023-05-22T11:13:43.743Z,97129.00
2023-05-22T11:16:12.378Z,97131.00
2023-05-22T11:18:41.085Z,97124.00
2023-05-22T11:21:13.610Z,97121.00
2023-05-22T11:23:43.826Z,97131.00
2023-05-22T11:26:26.344Z,97121.00
2023-05-22T11:28:56.699Z,97113.00
2023-05-22T11:31:26.415Z,97126.00
2023-05-22T11:33:55.292Z,97121.00
2023-05-22T11:36:24.676Z,97122.00
2023-05-22T11:38:59.860Z,97117.00
2023-05-22T11:41:34.256Z,97116.00
2023-05-22T11:44:06.099Z,97111.00
2023-05-22T11:46:34.490Z,97110.00
2023-05-22T11:49:03.611Z,97111.00
2023-05-22T11:51:31.968Z,97110.00
2023-05-22T11:54:02.531Z,97102.00
2023-05-22T11:56:30.738Z,97099.00
2023-05-22T11:58:58.962Z,97101.00
2023-05-22T12:01:27.606Z,97101.00
2023-05-22T12:03:55.940Z,97100.00
2023-05-22T12:06:24.430Z,97097.00
2023-05-22T12:08:52.937Z,97099.00
2023-05-22T12:11:23.425Z,97096.00
2023-05-22T12:14:01.995Z,97104.00
2023-05-22T12:16:36.620Z,97101.00
2023-05-22T12:19:09.728Z,97089.00
2023-05-22T12:21:41.775Z,97088.00
2023-05-22T12:24:11.370Z,97095.00
2023-05-22T12:26:40.980Z,97084.00
2023-05-22T12:29:09.956Z,97083.00
2023-05-22T12:31:38.804Z,97090.00
2023-05-22T12:34:09.157Z,97087.00
2023-05-22T12:36:41.077Z,97088.00
2023-05-22T12:39:10.307Z,97084.00
2023-05-22T12:41:40.734Z,97086.00
2023-05-22T12:44:09.846Z,97084.00
2023-05-22T12:46:39.489Z,97077.00
2023-05-22T12:49:07.867Z,97088.00
2023-05-22T12:51:36.646Z,97088.00
2023-05-22T12:54:06.292Z,97084.00
2023-05-22T12:56:34.714Z,97087.00
2023-05-22T12:59:04.431Z,97079.00
2023-05-22T13:01:33.658Z,97082.00
2023-05-22T13:04:01.994Z,97080.00
2023-05-22T13:06:30.650Z,97075.00
2023-05-22T13:09:02.018Z,97081.00
2023-05-22T13:11:30.409Z,97080.00
2023-05-22T13:13:58.790Z,97071.00
2023-05-22T13:16:28.426Z,97072.00
2023-05-22T13:18:56.835Z,97074.00
2023-05-22T13:21:26.578Z,97063.00
2023-05-22T13:23:55.791Z,97068.00
2023-05-22T13:26:24.143Z,97067.00
2023-05-22T13:28:52.605Z,97062.00
2023-05-22T13:31:21.580Z,97067.00
2023-05-22T13:33:51.377Z,97065.00
2023-05-22T13:36:19.924Z,97069.00
2023-05-22T13:38:48.384Z,97069.00
2023-05-22T13:41:17.658Z,97061.00
2023-05-22T13:43:45.983Z,97066.00
2023-05-22T13:46:14.273Z,97065.00
2023-05-22T13:48:42.585Z,97066.00
2023-05-22T13:51:12.351Z,97063.00
2023-05-22T13:53:40.778Z,97062.00
2023-05-22T13:56:09.139Z,97056.00
2023-05-22T13:58:37.430Z,97060.00
2023-05-22T14:01:05.966Z,97056.00
2023-05-22T14:03:34.784Z,97057.00
2023-05-22T14:06:03.209Z,97052.00
2023-05-22T14:08:32.937Z,97053.00
2023-05-22T14:11:01.263Z,97051.00
2023-05-22T14:13:29.605Z,97056.00
2023-05-22T14:15:58.085Z,97046.00
2023-05-22T14:18:26.621Z,97048.00
2023-05-22T14:20:55.174Z,97042.00
2023-05-22T14:23:23.514Z,97043.00
2023-05-22T14:25:53.247Z,97042.00
2023-05-22T14:28:21.586Z,97037.00
2023-05-22T14:30:49.896Z,97041.00
2023-05-22T14:33:18.257Z,97031.00
2023-05-22T14:35:46.549Z,97042.00
2023-05-22T14:38:14.752Z,97041.00
2023-05-22T14:40:43.037Z,97042.00
2023-05-22T14:43:12.653Z,97035.00
2023-05-22T14:45:41.220Z,97041.00
2023-05-22T14:48:11.536Z,97054.00
2023-05-22T14:50:39.842Z,97040.00
2023-05-22T14:53:08.121Z,97042.00
2023-05-22T14:55:36.486Z,97041.00
2023-05-22T14:58:04.888Z,97039.00
2023-05-22T15:00:34.781Z,97036.00
2023-05-22T15:03:03.492Z,97033.00
2023-05-22T15:05:31.985Z,97034.00
2023-05-22T15:08:00.462Z,97031.00
2023-05-22T15:10:29.081Z,97027.00
2023-05-22T15:12:57.513Z,97024.00
2023-05-22T15:15:26.023Z,97029.00
2023-05-22T15:17:56.367Z,97021.00
2023-05-22T15:20:24.641Z,97014.00
2023-05-22T15:22:52.990Z,97008.00
2023-05-22T15:25:21.272Z,97010.00
2023-05-22T15:27:49.520Z,97007.00
2023-05-22T15:30:20.713Z,97008.00
2023-05-22T15:32:50.607Z,97008.00
2023-05-22T15:35:20.458Z,97005.00
2023-05-22T15:37:48.740Z,96992.00
2023-05-22T15:40:22.380Z,96993.00
2023-05-22T15:42:51.107Z,97002.00
2023-05-22T15:45:19.767Z,97008.00
2023-05-22T15:47:48.233Z,97009.00
2023-05-22T15:50:16.817Z,97015.00
2023-05-22T15:52:46.620Z,97021.00
2023-05-22T15:55:15.218Z,97011.00
2023-05-22T15:57:43.883Z,97006.00
2023-05-22T16:00:13.681Z,97014.00
2023-05-22T16:02:42.397Z,97009.00
2023-05-22T16:05:11.313Z,97004.00
2023-05-22T16:07:39.589Z,97009.00
2023-05-22T16:10:10.646Z,97006.00
2023-05-22T16:12:41.565Z,97003.00
2023-05-22T16:15:11.278Z,97009.00
2023-05-22T16:17:40.468Z,97013.00
2023-05-22T16:20:10.241Z,97009.00
2023-05-22T16:22:48.003Z,97007.00
2023-05-22T16:25:19.016Z,97011.00
2023-05-22T16:27:47.296Z,97005.00
2023-05-22T16:30:17.175Z,97001.00
2023-05-22T16:32:47.153Z,97006.00
2023-05-22T16:35:16.282Z,97000.00
2023-05-22T16:37:44.746Z,97008.00
2023-05-22T16:40:13.504Z,97002.00
2023-05-22T16:42:43.192Z,97000.00
2023-05-22T16:45:11.748Z,97006.00
2023-05-22T16:47:40.316Z,97007.00
2023-05-22T16:50:10.144Z,97009.00
2023-05-22T16:52:38.368Z,97003.00
2023-05-22T16:55:08.167Z,97014.00
2023-05-22T16:57:39.175Z,97020.00
2023-05-22T17:00:11.502Z,97012.00
2023-05-22T17:02:42.928Z,97015.00
2023-05-22T17:05:11.587Z,97014.00
2023-05-22T17:07:39.920Z,97019.00
2023-05-22T17:10:09.362Z,97015.00
2023-05-22T17:12:37.975Z,97009.00
2023-05-22T17:15:09.501Z,97000.00
2023-05-22T17:17:38.432Z,97005.00
2023-05-22T17:20:08.130Z,97003.00
2023-05-22T17:22:37.397Z,97010.00
2023-05-22T17:25:08.113Z,97008.00
2023-05-22T17:27:37.086Z,97003.00
2023-05-22T17:30:08.594Z,97003.00
2023-05-22T17:32:37.575Z,96997.00
2023-05-22T17:35:07.225Z,97001.00
2023-05-22T17:37:35.871Z,96998.00
2023-05-22T17:40:05.163Z,96998.00
2023-05-22T17:42:33.396Z,97001.00
2023-05-22T17:45:01.660Z,97002.00
2023-05-22T17:47:31.368Z,97008.00
2023-05-22T17:49:59.660Z,97004.00
2023-05-22T17:52:27.961Z,97001.00
2023-05-22T17:54:56.914Z,97009.00
2023-05-22T17:57:27.710Z,97008.00
2023-05-22T17:59:55.987Z,97005.00
2023-05-22T18:02:26.399Z,96991.00
2023-05-22T18:04:56.105Z,96984.00
2023-05-22T18:07:24.340Z,96985.00
2023-05-22T18:09:52.704Z,96999.00
2023-05-22T18:14:52.153Z,96997.00
2023-05-22T18:17:20.568Z,97006.00
2023-05-22T18:19:48.806Z,96999.00
2023-05-22T18:22:18.468Z,96999.00
2023-05-22T18:24:46.768Z,97000.00
2023-05-22T18:27:14.993Z,97004.00
2023-05-22T18:29:43.242Z,97009.00
2023-05-22T18:32:13.515Z,97001.00
2023-05-22T18:34:42.394Z,97010.00
2023-05-22T18:37:10.946Z,97001.00
2023-05-22T18:39:41.542Z,97014.00
2023-05-22T18:42:10.032Z,97017.00
2023-05-22T18:44:38.666Z,97023.00
2023-05-22T18:47:07.456Z,97015.00
2023-05-22T18:49:42.732Z,97023.00
2023-05-22T18:52:13.172Z,97023.00
2023-05-22T18:54:42.847Z,97028.00
2023-05-22T18:57:11.202Z,97021.00
2023-05-22T18:59:39.573Z,97034.00
2023-05-22T19:02:08.387Z,97034.00
2023-05-22T19:04:36.683Z,97024.00
2023-05-22T19:07:07.797Z,97032.00
2023-05-22T19:09:41.157Z,97023.00
2023-05-22T19:12:26.089Z,97031.00
2023-05-22T19:15:01.154Z,97039.00
2023-05-22T19:17:29.548Z,97049.00
2023-05-22T19:19:57.882Z,97048.00
2023-05-22T19:22:26.274Z,97058.00
2023-05-22T19:24:56.337Z,97060.00
2023-05-22T19:27:28.508Z,97058.00
2023-05-22T19:29:57.647Z,97062.00
2023-05-22T19:32:27.859Z,97063.00
2023-05-22T19:34:56.255Z,97070.00
2023-05-22T19:37:24.548Z,97073.00
2023-05-22T19:39:52.896Z,97067.00
2023-05-22T19:42:21.136Z,97079.00
2023-05-22T19:44:50.875Z,97084.00
2023-05-22T19:47:19.103Z,97075.00
2023-05-22T19:49:47.373Z,97073.00
2023-05-22T19:52:15.710Z,97080.00
2023-05-22T19:54:44.483Z,97085.00
2023-05-22T19:57:12.867Z,97085.00
2023-05-22T19:59:41.625Z,97093.00
2023-05-22T20:02:11.627Z,97095.00
2023-05-22T20:04:43.356Z,97096.00
2023-05-22T20:07:11.842Z,97095.00
2023-05-22T20:09:42.319Z,97103.00
2023-05-22T20:12:10.871Z,97086.00
2023-05-22T20:14:39.272Z,97094.00
2023-05-22T20:17:08.280Z,97084.00
2023-05-22T20:19:45.039Z,97091.00
2023-05-22T20:22:13.323Z,97098.00
2023-05-22T20:24:41.763Z,97108.00
2023-05-22T20:27:10.201Z,97112.00
2023-05-22T20:29:38.586Z,97108.00
2023-05-22T20:32:08.742Z,97096.00
2023-05-22T20:34:38.512Z,97096.00
2023-05-22T20:37:09.914Z,97103.00
2023-05-22T20:39:38.327Z,97112.00
2023-05-22T20:42:07.660Z,97106.00
2023-05-22T20:44:36.684Z,97109.00
2023-05-22T20:47:07.097Z,97104.00
2023-05-22T20:49:35.865Z,97116.00
2023-05-22T20:52:04.776Z,97108.00
2023-05-22T20:54:35.160Z,97108.00
2023-05-22T20:57:03.983Z,97115.00
2023-05-22T20:59:32.244Z,97113.00
2023-05-22T21:02:01.285Z,97119.00
2023-05-22T21:04:30.170Z,97117.00
2023-05-22T21:06:58.507Z,97118.00
2023-05-22T21:09:28.813Z,97116.00
2023-05-22T21:11:59.245Z,97116.00
2023-05-22T21:14:35.983Z,97119.00
2023-05-22T21:17:04.759Z,97103.00
2023-05-22T21:19:35.435Z,97126.00
2023-05-22T21:22:07.229Z,97120.00
2023-05-22T21:24:35.659Z,97116.00
2023-05-22T21:27:09.763Z,97111.00
2023-05-22T21:29:38.004Z,97116.00
2023-05-22T21:32:09.506Z,97114.00
2023-05-22T21:34:39.813Z,97127.00
2023-05-22T21:37:34.108Z,97123.00
2023-05-22T21:40:02.576Z,97122.00
2023-05-22T21:42:44.947Z,97108.00
2023-05-22T21:45:14.710Z,97112.00
2023-05-22T21:47:43.091Z,97118.00
2023-05-22T21:50:17.291Z,97115.00
2023-05-22T21:52:45.983Z,97117.00
2023-05-22T21:55:17.165Z,97124.00
2023-05-22T21:57:48.835Z,97105.00
2023-05-22T22:00:19.003Z,97109.00
2023-05-22T22:02:47.503Z,97104.00
2023-05-22T22:05:18.504Z,97099.00
2023-05-22T22:07:47.283Z,97109.00
2023-05-22T22:10:17.099Z,97104.00
2023-05-22T22:12:47.037Z,97094.00
2023-05-22T22:15:15.963Z,97115.00
2023-05-22T22:17:44.381Z,97101.00
2023-05-22T22:20:13.309Z,97104.00
2023-05-22T22:22:42.313Z,97109.00
2023-05-22T22:25:11.137Z,97098.00
2023-05-22T22:27:39.595Z,97097.00
2023-05-22T22:30:11.549Z,97099.00
2023-05-22T22:32:40.670Z,97093.00
2023-05-22T22:35:11.135Z,97116.00
2023-05-22T22:37:39.588Z,97109.00
2023-05-22T22:40:09.930Z,97117.00
2023-05-22T22:42:38.329Z,97115.00
2023-05-22T22:45:10.445Z,97108.00
2023-05-22T22:47:38.745Z,97112.00
2023-05-22T22:50:10.188Z,97101.00
2023-05-22T22:52:38.843Z,97115.00
2023-05-22T22:55:11.411Z,97117.00
2023-05-22T22:57:39.910Z,97123.00
2023-05-22T23:00:13.188Z,97121.00
2023-05-22T23:02:41.689Z,97119.00
2023-05-22T23:05:11.077Z,97123.00
2023-05-22T23:07:39.559Z,97128.00
2023-05-22T23:10:10.052Z,97136.00
2023-05-22T23:12:38.320Z,97130.00
2023-05-22T23:15:11.040Z,97137.00
2023-05-22T23:17:39.501Z,97133.00
2023-05-22T23:20:09.907Z,97138.00
2023-05-22T23:22:38.192Z,97126.00
2023-05-22T23:25:07.943Z,97135.00
2023-05-22T23:27:36.421Z,97137.00
2023-05-22T23:30:05.539Z,97132.00
2023-05-22T23:32:35.344Z,97141.00
2023-05-22T23:35:03.802Z,97158.00
2023-05-22T23:37:32.153Z,97149.00
2023-05-22T23:40:00.576Z,97157.00
2023-05-22T23:42:28.807Z,97143.00
2023-05-22T23:44:57.112Z,97139.00
2023-05-22T23:47:25.392Z,97152.00
2023-05-22T23:49:56.645Z,97153.00
2023-05-22T23:52:25.075Z,97148.00
2023-05-22T23:54:53.517Z,97158.00
2023-05-22T23:57:21.898Z,97144.00
2023-05-22T23:59:50.921Z,97146.00
